createdAt,value
2017-09-02T00:01:10.432Z,94.60
2017-09-02T00:03:37.980Z,94.60
2017-09-02T00:06:05.519Z,95.00
2017-09-02T00:08:33.064Z,95.00
2017-09-02T00:11:00.620Z,95.00
2017-09-02T00:13:28.076Z,95.10
2017-09-02T00:15:55.592Z,95.00
2017-09-02T00:18:23.132Z,94.80
2017-09-02T00:20:50.672Z,94.90
2017-09-02T00:23:18.224Z,94.40
2017-09-02T00:25:45.684Z,94.40
2017-09-02T00:28:13.139Z,94.60
2017-09-02T00:30:40.880Z,94.40
2017-09-02T00:33:08.344Z,94.60
2017-09-02T00:35:35.832Z,94.50
2017-09-02T00:38:03.380Z,94.50
2017-09-02T00:40:30.840Z,94.60
2017-09-02T00:42:58.300Z,94.50
2017-09-02T00:45:25.904Z,94.50
2017-09-02T00:47:53.372Z,94.90
2017-09-02T00:50:20.892Z,95.70
2017-09-02T00:52:48.640Z,95.60
2017-09-02T00:55:16.180Z,95.60
2017-09-02T00:57:43.723Z,95.80
2017-09-02T01:00:11.281Z,96.10
2017-09-02T01:02:39.516Z,97.50
2017-09-02T01:05:06.985Z,97.50
2017-09-02T01:07:34.721Z,97.40
2017-09-02T01:10:02.189Z,97.80
2017-09-02T01:12:29.651Z,97.70
2017-09-02T01:14:57.252Z,97.80
2017-09-02T01:17:24.722Z,98.20
2017-09-02T01:19:52.235Z,98.00
2017-09-02T01:22:19.888Z,97.60
2017-09-02T01:24:47.420Z,97.80
2017-09-02T01:27:14.889Z,97.90
2017-09-02T01:29:42.415Z,98.40
2017-09-02T01:32:09.943Z,98.20
2017-09-02T01:34:37.418Z,98.40
2017-09-02T01:37:04.940Z,98.10
2017-09-02T01:39:32.404Z,98.10
2017-09-02T01:41:59.876Z,98.30
2017-09-02T01:44:28.392Z,98.70
2017-09-02T01:46:55.877Z,98.70
2017-09-02T01:49:23.574Z,99.10
2017-09-02T01:51:51.115Z,99.10
2017-09-02T01:54:18.655Z,99.60
2017-09-02T01:56:46.407Z,99.30
2017-09-02T01:59:14.665Z,99.10
2017-09-02T02:01:42.224Z,98.70
2017-09-02T02:04:09.761Z,99.00
2017-09-02T02:06:37.226Z,99.30
2017-09-02T02:09:04.739Z,99.90
2017-09-02T02:11:32.220Z,99.60
2017-09-02T02:13:59.824Z,99.50
2017-09-02T02:16:27.290Z,99.90
2017-09-02T02:18:54.811Z,99.70
2017-09-02T02:21:22.360Z,99.90
2017-09-02T02:23:49.896Z,99.90
2017-09-02T02:26:17.440Z,99.90
2017-09-02T02:28:44.951Z,99.80
2017-09-02T02:31:12.432Z,99.50
2017-09-02T02:33:39.972Z,99.60
2017-09-02T02:36:07.512Z,99.40
2017-09-02T02:38:35.736Z,99.80
2017-09-02T02:41:03.195Z,99.40
2017-09-02T02:43:30.866Z,99.40
2017-09-02T02:45:58.403Z,99.40
2017-09-02T02:48:25.960Z,99.40
2017-09-02T02:50:53.490Z,99.20
2017-09-02T02:53:20.960Z,99.20
2017-09-02T02:55:48.471Z,99.00
2017-09-02T02:58:16.128Z,99.20
2017-09-02T03:00:43.596Z,99.30
2017-09-02T03:03:11.060Z,99.50
2017-09-02T03:05:38.556Z,99.70
2017-09-02T03:08:06.020Z,99.90
2017-09-02T03:10:34.244Z,99.90
2017-09-02T03:13:01.726Z,99.90
2017-09-02T03:15:29.180Z,99.90
2017-09-02T03:17:56.684Z,99.90
2017-09-02T03:20:24.172Z,99.90
2017-09-02T03:22:51.629Z,99.90
2017-09-02T03:25:19.099Z,99.90
2017-09-02T03:27:46.652Z,99.90
2017-09-02T03:30:14.132Z,99.90
2017-09-02T03:32:41.628Z,99.90
2017-09-02T03:35:09.329Z,99.90
2017-09-02T03:37:36.789Z,99.90
2017-09-02T03:40:04.272Z,99.90
2017-09-02T03:42:31.775Z,99.90
2017-09-02T03:44:59.244Z,99.90
2017-09-02T03:47:26.791Z,99.90
2017-09-02T03:49:54.288Z,99.90
2017-09-02T03:52:21.754Z,99.90
2017-09-02T03:54:49.217Z,99.90
2017-09-02T03:57:16.756Z,99.90
2017-09-02T03:59:44.212Z,99.90
2017-09-02T04:02:11.728Z,99.90
2017-09-02T04:04:39.288Z,99.90
2017-09-02T04:07:06.832Z,99.90
2017-09-02T04:09:34.378Z,99.90
2017-09-02T04:12:01.878Z,99.90
2017-09-02T04:17:20.048Z,99.90
2017-09-02T04:19:47.584Z,99.90
2017-09-02T04:22:15.047Z,99.90
2017-09-02T04:24:42.572Z,99.90
2017-09-02T04:27:10.068Z,99.90
2017-09-02T04:29:37.523Z,99.90
2017-09-02T04:32:04.988Z,99.90
2017-09-02T04:34:32.531Z,99.90
2017-09-02T04:36:59.997Z,99.90
2017-09-02T04:39:27.488Z,99.90
2017-09-02T04:41:54.960Z,99.90
2017-09-02T04:44:22.528Z,99.90
2017-09-02T04:46:50.253Z,99.90
2017-09-02T04:49:17.808Z,99.90
2017-09-02T04:51:45.338Z,99.90
2017-09-02T04:54:12.969Z,99.90
2017-09-02T04:56:40.632Z,99.90
2017-09-02T04:59:08.087Z,99.90
2017-09-02T05:01:36.443Z,99.90
2017-09-02T05:04:03.985Z,99.90
2017-09-02T05:06:31.723Z,99.90
2017-09-02T05:08:59.386Z,99.90
2017-09-02T05:11:26.856Z,99.90
2017-09-02T05:13:54.564Z,99.90
2017-09-02T05:16:22.824Z,99.90
2017-09-02T05:18:50.368Z,99.90
2017-09-02T05:21:17.911Z,99.90
2017-09-02T05:23:45.376Z,99.90
2017-09-02T05:26:12.854Z,99.90
2017-09-02T05:28:40.448Z,99.90
2017-09-02T05:31:07.987Z,99.90
2017-09-02T05:33:35.628Z,99.90
2017-09-02T05:36:03.172Z,99.90
2017-09-02T05:38:30.717Z,99.90
2017-09-02T05:40:59.184Z,99.90
2017-09-02T05:43:26.646Z,99.90
2017-09-02T05:45:54.162Z,99.90
2017-09-02T05:48:21.709Z,99.90
2017-09-02T05:50:49.185Z,99.90
2017-09-02T05:53:16.896Z,99.90
2017-09-02T05:55:44.355Z,99.90
2017-09-02T05:58:11.821Z,99.90
2017-09-02T06:00:39.336Z,99.90
2017-09-02T06:03:06.804Z,99.90
2017-09-02T06:05:34.256Z,99.90
2017-09-02T06:08:01.751Z,99.90
2017-09-02T06:10:30.021Z,99.90
2017-09-02T06:12:57.479Z,99.90
2017-09-02T06:15:24.972Z,99.90
2017-09-02T06:17:52.539Z,99.90
2017-09-02T06:20:20.084Z,99.90
2017-09-02T06:22:47.626Z,99.90
2017-09-02T06:25:15.088Z,99.90
2017-09-02T06:27:43.328Z,99.90
2017-09-02T06:30:10.795Z,99.90
2017-09-02T06:32:38.316Z,99.90
2017-09-02T06:35:05.859Z,99.90
2017-09-02T06:37:33.329Z,99.90
2017-09-02T06:40:00.781Z,99.90
2017-09-02T06:42:28.492Z,99.90
2017-09-02T06:44:56.024Z,99.90
2017-09-02T06:47:23.568Z,99.90
2017-09-02T06:49:51.212Z,99.90
2017-09-02T06:52:18.817Z,99.90
2017-09-02T06:54:46.376Z,99.90
2017-09-02T06:57:14.057Z,99.90
2017-09-02T06:59:41.602Z,99.90
2017-09-02T07:02:09.114Z,99.90
2017-09-02T07:04:36.689Z,99.90
2017-09-02T07:07:04.237Z,99.90
2017-09-02T07:09:31.696Z,99.80
2017-09-02T07:11:59.411Z,99.90
2017-09-02T07:14:26.958Z,99.90
2017-09-02T07:16:54.504Z,99.70
2017-09-02T07:19:22.048Z,99.90
2017-09-02T07:21:49.508Z,98.90
2017-09-02T07:24:17.733Z,98.90
2017-09-02T07:26:45.300Z,98.90
2017-09-02T07:29:12.769Z,98.60
2017-09-02T07:31:40.275Z,98.30
2017-09-02T07:34:07.819Z,98.10
2017-09-02T07:36:35.359Z,97.80
2017-09-02T07:39:03.112Z,97.90
2017-09-02T07:41:30.579Z,97.50
2017-09-02T07:43:58.048Z,97.20
2017-09-02T07:46:25.744Z,97.30
2017-09-02T07:48:53.288Z,97.30
2017-09-02T07:51:20.826Z,97.00
2017-09-02T07:53:48.368Z,97.00
2017-09-02T07:56:15.836Z,96.80
2017-09-02T07:58:43.296Z,96.30
2017-09-02T08:01:10.932Z,95.60
2017-09-02T08:03:38.388Z,95.60
2017-09-02T08:06:05.844Z,95.40
2017-09-02T08:08:33.328Z,95.60
2017-09-02T08:11:00.840Z,95.20
2017-09-02T08:13:28.300Z,95.00
2017-09-02T08:15:55.973Z,95.70
2017-09-02T08:18:23.513Z,95.10
2017-09-02T08:20:50.971Z,95.70
2017-09-02T08:23:18.476Z,95.60
2017-09-02T08:25:46.026Z,94.80
2017-09-02T08:28:13.567Z,94.80
2017-09-02T08:30:41.117Z,94.60
2017-09-02T08:33:08.661Z,94.70
2017-09-02T08:35:36.399Z,93.90
2017-09-02T08:38:03.956Z,93.50
2017-09-02T08:40:31.412Z,93.20
2017-09-02T08:42:59.132Z,93.10
2017-09-02T08:45:26.681Z,92.70
2017-09-02T08:47:54.135Z,92.00
2017-09-02T08:50:21.667Z,91.50
2017-09-02T08:52:49.111Z,91.80
2017-09-02T08:55:16.563Z,91.30
2017-09-02T08:57:44.036Z,90.80
2017-09-02T09:00:11.492Z,91.20
2017-09-02T09:02:38.979Z,88.90
2017-09-02T09:05:06.719Z,87.70
2017-09-02T09:07:34.276Z,90.20
2017-09-02T09:10:01.808Z,88.80
2017-09-02T09:12:29.355Z,87.20
2017-09-02T09:14:56.803Z,85.00
2017-09-02T09:17:24.340Z,83.80
2017-09-02T09:19:51.803Z,83.30
2017-09-02T09:22:19.307Z,79.40
2017-09-02T09:24:46.864Z,78.40
2017-09-02T09:27:14.408Z,73.60
2017-09-02T09:29:41.952Z,75.70
2017-09-02T09:32:09.636Z,75.60
2017-09-02T09:34:37.088Z,74.30
2017-09-02T09:37:04.540Z,72.50
2017-09-02T09:39:32.232Z,73.20
2017-09-02T09:41:59.684Z,71.60
2017-09-02T09:44:27.140Z,68.50
2017-09-02T09:46:54.652Z,69.30
2017-09-02T09:49:22.111Z,68.80
2017-09-02T09:51:49.635Z,68.90
2017-09-02T09:54:17.253Z,69.20
2017-09-02T09:56:44.724Z,67.60
2017-09-02T09:59:12.183Z,66.60
2017-09-02T10:01:39.912Z,67.20
2017-09-02T10:04:07.460Z,65.10
2017-09-02T10:06:35.003Z,66.10
2017-09-02T10:09:02.489Z,67.70
2017-09-02T10:11:30.044Z,65.20
2017-09-02T10:13:57.495Z,68.70
2017-09-02T10:16:24.956Z,69.10
2017-09-02T10:18:52.416Z,65.90
2017-09-02T10:21:19.960Z,65.20
2017-09-02T10:23:47.499Z,64.70
2017-09-02T10:26:14.952Z,63.90
2017-09-02T10:28:42.584Z,64.90
2017-09-02T10:31:10.075Z,67.30
2017-09-02T10:33:37.520Z,66.50
2017-09-02T10:36:05.004Z,68.20
2017-09-02T10:38:32.456Z,67.10
2017-09-02T10:40:59.908Z,67.00
2017-09-02T10:43:27.544Z,66.50
2017-09-02T10:45:55.000Z,66.70
2017-09-02T10:48:22.527Z,67.70
2017-09-02T10:50:50.988Z,67.20
2017-09-02T10:53:18.531Z,62.40
2017-09-02T10:55:46.183Z,64.10
2017-09-02T10:58:13.656Z,65.10
2017-09-02T11:00:41.160Z,62.00
2017-09-02T11:03:08.707Z,60.50
2017-09-02T11:05:36.162Z,60.20
2017-09-02T11:08:03.707Z,61.10
2017-09-02T11:10:31.348Z,56.00
2017-09-02T11:12:58.795Z,55.00
2017-09-02T11:15:26.288Z,55.10
2017-09-02T11:17:53.752Z,56.90
2017-09-02T11:20:21.209Z,59.30
2017-09-02T11:22:48.748Z,58.20
2017-09-02T11:25:16.392Z,52.90
2017-09-02T11:27:43.939Z,52.40
2017-09-02T11:30:11.479Z,54.10
2017-09-02T11:32:39.055Z,53.50
2017-09-02T11:35:06.568Z,54.60
2017-09-02T11:37:34.112Z,52.80
2017-09-02T11:40:01.857Z,53.10
2017-09-02T11:42:29.399Z,52.10
2017-09-02T11:44:56.948Z,48.70
2017-09-02T11:47:24.593Z,44.10
2017-09-02T11:49:52.137Z,44.20
2017-09-02T11:52:19.671Z,42.60
2017-09-02T11:54:47.138Z,39.30
2017-09-02T11:57:14.687Z,36.80
2017-09-02T11:59:42.933Z,33.20
2017-09-02T12:02:10.572Z,33.20
2017-09-02T12:04:38.215Z,32.60
2017-09-02T12:07:05.765Z,31.60
2017-09-02T12:09:33.280Z,29.60
2017-09-02T12:12:00.840Z,29.40
2017-09-02T12:14:28.396Z,28.40
2017-09-02T12:16:55.932Z,29.50
2017-09-02T12:19:23.419Z,29.70
2017-09-02T12:21:50.868Z,27.60
2017-09-02T12:24:18.315Z,27.40
2017-09-02T12:26:47.932Z,25.50
2017-09-02T12:29:17.329Z,25.00
2017-09-02T12:31:44.875Z,24.20
2017-09-02T12:34:12.529Z,23.70
2017-09-02T12:36:39.988Z,21.90
2017-09-02T12:39:07.440Z,23.80
2017-09-02T12:41:35.055Z,22.40
2017-09-02T12:44:02.516Z,22.10
2017-09-02T12:46:30.024Z,22.70
2017-09-02T12:48:57.583Z,22.10
2017-09-02T12:51:25.232Z,22.40
2017-09-02T12:53:52.752Z,21.70
2017-09-02T12:56:20.323Z,22.10
2017-09-02T12:58:48.788Z,23.80
2017-09-02T13:01:16.325Z,23.50
2017-09-02T13:03:43.784Z,24.40
2017-09-02T13:06:11.282Z,25.60
2017-09-02T13:08:38.737Z,27.20
2017-09-02T13:11:06.193Z,28.40
2017-09-02T13:13:33.943Z,29.30
2017-09-02T13:16:01.488Z,30.90
2017-09-02T13:18:29.024Z,33.20
2017-09-02T13:20:56.775Z,34.40
2017-09-02T13:23:24.228Z,36.40
2017-09-02T13:25:51.684Z,36.00
2017-09-02T13:28:19.139Z,36.50
2017-09-02T13:30:46.592Z,36.40
2017-09-02T13:33:14.080Z,37.40
2017-09-02T13:35:41.627Z,37.90
2017-09-02T13:38:09.084Z,40.80
2017-09-02T13:40:36.616Z,40.60
2017-09-02T13:43:04.080Z,40.20
2017-09-02T13:45:31.529Z,41.00
2017-09-02T13:47:59.040Z,36.60
2017-09-02T13:50:26.584Z,31.00
2017-09-02T13:52:54.045Z,30.10
2017-09-02T13:55:21.504Z,30.30
2017-09-02T13:57:49.016Z,28.50
2017-09-02T14:00:16.551Z,28.10
2017-09-02T14:02:44.096Z,28.10
2017-09-02T14:05:11.640Z,29.70
2017-09-02T14:07:39.170Z,30.70
2017-09-02T14:10:06.620Z,33.00
2017-09-02T14:12:34.076Z,34.10
2017-09-02T14:15:02.465Z,35.50
2017-09-02T14:17:29.911Z,36.10
2017-09-02T14:19:57.416Z,37.50
2017-09-02T14:22:25.161Z,38.40
2017-09-02T14:24:52.704Z,39.50
2017-09-02T14:27:20.163Z,40.10
2017-09-02T14:29:47.647Z,39.90
2017-09-02T14:32:15.128Z,41.10
2017-09-02T14:34:42.672Z,34.70
2017-09-02T14:37:10.467Z,34.20
2017-09-02T14:39:37.924Z,34.80
2017-09-02T14:42:05.408Z,35.00
2017-09-02T14:44:33.057Z,38.90
2017-09-02T14:47:00.600Z,39.60
2017-09-02T14:49:28.052Z,41.80
2017-09-02T14:51:55.584Z,47.70
2017-09-02T14:54:23.226Z,48.00
2017-09-02T14:56:50.767Z,49.70
2017-09-02T14:59:18.315Z,51.00
2017-09-02T15:01:46.068Z,49.70
2017-09-02T15:04:13.616Z,47.20
2017-09-02T15:06:41.063Z,49.30
2017-09-02T15:09:08.780Z,42.90
2017-09-02T15:11:36.235Z,41.40
2017-09-02T15:14:03.780Z,38.10
2017-09-02T15:16:31.519Z,33.40
2017-09-02T15:18:59.063Z,29.70
2017-09-02T15:21:26.528Z,29.80
2017-09-02T15:23:54.975Z,29.00
2017-09-02T15:26:22.519Z,28.90
2017-09-02T15:28:49.968Z,29.10
2017-09-02T15:31:17.504Z,28.30
2017-09-02T15:33:44.969Z,28.50
2017-09-02T15:36:12.488Z,30.00
2017-09-02T15:38:40.038Z,30.80
2017-09-02T15:41:07.563Z,32.00
2017-09-02T15:43:35.016Z,34.20
2017-09-02T15:46:02.656Z,35.60
2017-09-02T15:48:30.205Z,37.10
2017-09-02T15:50:57.757Z,37.80
2017-09-02T15:53:25.400Z,38.50
2017-09-02T15:55:52.940Z,39.10
2017-09-02T15:58:20.484Z,40.50
2017-09-02T16:00:48.026Z,40.00
2017-09-02T16:03:15.476Z,40.40
2017-09-02T16:05:42.968Z,38.90
2017-09-02T16:08:10.918Z,37.80
2017-09-02T16:10:38.368Z,36.40
2017-09-02T16:13:05.849Z,33.90
2017-09-02T16:15:33.303Z,31.80
2017-09-02T16:18:00.751Z,30.70
2017-09-02T16:20:28.472Z,29.00
2017-09-02T16:22:56.019Z,28.40
2017-09-02T16:25:23.474Z,28.90
2017-09-02T16:27:50.959Z,28.60
2017-09-02T16:30:18.445Z,27.60
2017-09-02T16:32:45.900Z,27.50
2017-09-02T16:35:13.637Z,27.00
2017-09-02T16:37:41.180Z,25.80
2017-09-02T16:40:08.642Z,25.90
2017-09-02T16:42:36.168Z,26.20
2017-09-02T16:45:03.625Z,25.40
2017-09-02T16:47:31.079Z,26.30
2017-09-02T16:49:58.815Z,26.20
2017-09-02T16:52:26.261Z,25.90
2017-09-02T16:54:53.711Z,26.30
2017-09-02T16:57:21.164Z,27.00
2017-09-02T16:59:48.621Z,26.70
2017-09-02T17:02:16.256Z,26.80
2017-09-02T17:04:43.701Z,27.30
2017-09-02T17:07:11.152Z,28.60
2017-09-02T17:09:38.624Z,29.80
2017-09-02T17:12:06.076Z,31.00
2017-09-02T17:14:33.519Z,33.00
2017-09-02T17:17:01.004Z,34.80
2017-09-02T17:19:28.520Z,35.10
2017-09-02T17:21:55.964Z,37.10
2017-09-02T17:24:23.456Z,37.00
2017-09-02T17:26:50.911Z,37.00
2017-09-02T17:29:18.359Z,38.40
2017-09-02T17:31:46.308Z,39.40
2017-09-02T17:34:13.856Z,40.50
2017-09-02T17:36:41.404Z,41.40
2017-09-02T17:39:09.160Z,42.60
2017-09-02T17:41:36.701Z,43.60
2017-09-02T17:44:04.156Z,43.60
2017-09-02T17:46:31.680Z,45.60
2017-09-02T17:48:59.133Z,45.60
2017-09-02T17:51:26.673Z,45.90
2017-09-02T17:53:54.407Z,47.50
2017-09-02T17:56:21.948Z,49.00
2017-09-02T17:58:49.400Z,48.40
2017-09-02T18:01:16.939Z,49.80
2017-09-02T18:03:44.592Z,50.10
2017-09-02T18:06:12.133Z,51.30
2017-09-02T18:08:39.778Z,51.50
2017-09-02T18:11:07.531Z,52.00
2017-09-02T18:13:35.069Z,52.60
2017-09-02T18:16:02.616Z,52.90
2017-09-02T18:18:30.096Z,53.80
2017-09-02T18:20:57.595Z,55.00
2017-09-02T18:23:25.139Z,54.80
2017-09-02T18:25:52.620Z,55.30
2017-09-02T18:28:20.077Z,56.10
2017-09-02T18:30:47.563Z,56.20
2017-09-02T18:33:15.213Z,56.60
2017-09-02T18:35:42.687Z,57.50
2017-09-02T18:38:10.206Z,57.60
2017-09-02T18:40:37.745Z,58.70
2017-09-02T18:43:05.488Z,59.80
2017-09-02T18:45:32.995Z,59.90
2017-09-02T18:48:00.447Z,60.30
2017-09-02T18:50:28.122Z,61.00
2017-09-02T18:52:55.572Z,61.90
2017-09-02T18:55:23.784Z,62.50
2017-09-02T18:57:51.279Z,62.50
2017-09-02T19:00:18.811Z,62.70
2017-09-02T19:02:46.347Z,63.60
2017-09-02T19:05:13.836Z,64.80
2017-09-02T19:07:41.333Z,65.20
2017-09-02T19:10:08.877Z,65.90
2017-09-02T19:12:36.520Z,67.10
2017-09-02T19:15:04.063Z,66.90
2017-09-02T19:17:31.609Z,66.80
2017-09-02T19:19:59.124Z,67.10
2017-09-02T19:22:26.596Z,68.40
2017-09-02T19:24:54.141Z,68.60
2017-09-02T19:27:21.682Z,70.90
2017-09-02T19:29:49.132Z,71.40
2017-09-02T19:32:16.587Z,71.20
2017-09-02T19:34:44.309Z,71.70
2017-09-02T19:37:11.856Z,71.90
2017-09-02T19:39:39.317Z,72.70
2017-09-02T19:42:07.047Z,73.30
2017-09-02T19:44:34.587Z,74.10
2017-09-02T19:47:02.040Z,74.90
2017-09-02T19:49:29.572Z,75.00
2017-09-02T19:51:57.028Z,75.70
2017-09-02T19:54:24.560Z,75.80
2017-09-02T19:56:52.048Z,75.90
2017-09-02T19:59:19.507Z,76.30
2017-09-02T20:01:46.995Z,76.40
2017-09-02T20:04:14.731Z,77.50
2017-09-02T20:06:42.277Z,78.00
2017-09-02T20:09:09.731Z,78.50
2017-09-02T20:11:37.203Z,78.10
2017-09-02T20:14:04.656Z,78.00
2017-09-02T20:16:32.140Z,78.70
2017-09-02T20:18:59.788Z,79.30
2017-09-02T20:21:27.332Z,80.20
2017-09-02T20:23:55.560Z,81.20
2017-09-02T20:26:23.128Z,80.70
2017-09-02T20:28:50.680Z,80.70
2017-09-02T20:31:18.944Z,81.90
2017-09-02T20:33:46.560Z,81.30
2017-09-02T20:36:14.025Z,81.90
2017-09-02T20:38:41.492Z,82.10
2017-09-02T20:41:09.013Z,82.40
2017-09-02T20:43:36.476Z,83.90
2017-09-02T20:46:03.999Z,83.70
2017-09-02T20:48:31.640Z,84.00
2017-09-02T20:50:59.868Z,84.40
2017-09-02T20:53:27.340Z,84.40
2017-09-02T20:55:54.864Z,84.60
2017-09-02T20:58:22.408Z,84.50
2017-09-02T21:00:49.867Z,84.80
2017-09-02T21:03:17.413Z,85.20
2017-09-02T21:05:44.872Z,86.40
2017-09-02T21:08:12.408Z,85.80
2017-09-02T21:10:40.308Z,86.40
2017-09-02T21:13:07.787Z,86.70
2017-09-02T21:15:35.332Z,86.40
2017-09-02T21:18:03.513Z,86.80
2017-09-02T21:20:31.036Z,87.40
2017-09-02T21:22:58.776Z,87.30
2017-09-02T21:25:26.248Z,87.40
2017-09-02T21:27:53.764Z,87.80
2017-09-02T21:30:21.255Z,88.50
2017-09-02T21:32:48.715Z,88.90
2017-09-02T21:35:16.184Z,89.20
2017-09-02T21:37:43.659Z,89.70
2017-09-02T21:40:11.170Z,89.90
2017-09-02T21:42:38.723Z,90.00
2017-09-02T21:45:06.270Z,90.00
2017-09-02T21:47:33.868Z,90.30
2017-09-02T21:50:01.456Z,90.20
2017-09-02T21:52:28.999Z,90.20
2017-09-02T21:54:56.544Z,90.70
2017-09-02T21:57:24.084Z,90.80
2017-09-02T21:59:51.571Z,90.70
2017-09-02T22:02:19.072Z,91.20
2017-09-02T22:04:46.624Z,90.80
2017-09-02T22:07:14.163Z,90.80
2017-09-02T22:09:41.712Z,90.80
2017-09-02T22:12:09.256Z,90.80
2017-09-02T22:14:36.792Z,90.90
2017-09-02T22:17:04.351Z,91.10
2017-09-02T22:19:31.812Z,91.30
2017-09-02T22:21:59.315Z,91.10
2017-09-02T22:24:26.772Z,91.50
2017-09-02T22:26:55.231Z,91.80
2017-09-02T22:29:22.692Z,91.80
2017-09-02T22:31:50.148Z,91.80
2017-09-02T22:34:17.632Z,91.80
2017-09-02T22:36:45.096Z,91.90
2017-09-02T22:39:12.559Z,92.00
2017-09-02T22:41:40.084Z,92.00
2017-09-02T22:44:08.345Z,92.30
2017-09-02T22:46:35.800Z,92.20
2017-09-02T22:49:03.324Z,92.20
2017-09-02T22:51:30.863Z,92.30
2017-09-02T22:53:58.415Z,92.40
2017-09-02T22:56:26.053Z,92.80
2017-09-02T22:58:53.596Z,92.50
2017-09-02T23:01:21.144Z,92.50
2017-09-02T23:03:48.616Z,92.50
2017-09-02T23:06:16.132Z,92.60
2017-09-02T23:08:43.620Z,92.60
2017-09-02T23:11:11.126Z,93.00
2017-09-02T23:13:38.595Z,93.20
2017-09-02T23:16:06.164Z,93.30
2017-09-02T23:18:33.717Z,93.40
2017-09-02T23:21:01.256Z,93.50
2017-09-02T23:23:28.720Z,93.80
2017-09-02T23:25:56.244Z,93.90
2017-09-02T23:28:23.708Z,93.90
2017-09-02T23:30:51.219Z,93.80
2017-09-02T23:33:18.767Z,93.90
2017-09-02T23:35:46.308Z,94.30
2017-09-02T23:38:13.951Z,94.30
2017-09-02T23:40:41.508Z,94.30
2017-09-02T23:43:08.968Z,94.30
2017-09-02T23:45:36.449Z,94.40
2017-09-02T23:48:03.929Z,94.40
2017-09-02T23:50:31.468Z,94.30
2017-09-02T23:52:59.010Z,94.50
2017-09-02T23:55:26.475Z,94.50
2017-09-02T23:57:53.940Z,94.40
